Time;durP1;ratioP1;P1;durP2;ratioP2;P2;SDS_P1;SDS_P2;PMS_P1;PMS_P2;Temp;Humidity;BMP_temperature;BMP_pressure;BME280_temperature;BME280_humidity;BME280_pressure;Samples;Min_cycle;Max_cycle;Signal;HPM_P1;HPM_P2
2021/04/15 00:02:20;;;;;;;2.50;1.60;;;5.90;99.90;;;;;;5087985;28;20696;-75
2021/04/15 00:04:46;;;;;;;3.70;1.63;;;5.80;99.90;;;;;;5088135;28;20209;-75
2021/04/15 00:07:12;;;;;;;2.70;1.80;;;5.80;99.90;;;;;;5091757;28;20214;-75
2021/04/15 00:09:38;;;;;;;2.27;1.53;;;5.70;99.90;;;;;;5092051;28;20293;-75
2021/04/15 00:12:05;;;;;;;2.13;1.93;;;5.70;99.90;;;;;;5092004;28;20587;-75
2021/04/15 00:14:31;;;;;;;3.33;1.90;;;5.70;99.90;;;;;;5091809;28;20267;-76
2021/04/15 00:16:58;;;;;;;2.43;1.70;;;5.70;99.90;;;;;;5092165;28;20191;-76
2021/04/15 00:19:24;;;;;;;2.47;1.90;;;5.60;99.90;;;;;;5092162;28;20252;-77
2021/04/15 00:21:50;;;;;;;1.50;1.40;;;5.60;99.90;;;;;;5091971;28;20262;-76
2021/04/15 00:24:17;;;;;;;1.97;1.60;;;5.60;99.90;;;;;;5091776;28;20214;-76
2021/04/15 00:26:43;;;;;;;2.23;1.63;;;5.60;99.90;;;;;;5091988;28;20287;-76
2021/04/15 00:29:09;;;;;;;1.93;1.57;;;5.60;99.90;;;;;;5091860;28;20246;-75
2021/04/15 00:31:36;;;;;;;1.80;1.63;;;5.50;99.90;;;;;;5091402;28;20700;-76
2021/04/15 00:34:03;;;;;;;2.33;1.97;;;5.50;99.90;;;;;;5091871;28;20272;-76
2021/04/15 00:36:29;;;;;;;3.67;1.67;;;5.50;99.90;;;;;;5091887;28;20210;-76
2021/04/15 00:38:56;;;;;;;2.27;1.90;;;5.50;99.90;;;;;;5091461;28;20207;-75
2021/04/15 00:41:22;;;;;;;1.63;1.53;;;5.40;99.90;;;;;;5091482;28;20231;-76
2021/04/15 00:43:49;;;;;;;1.73;1.60;;;5.40;99.90;;;;;;5091531;28;20214;-77
2021/04/15 00:46:41;;;;;;;2.97;1.90;;;5.40;99.90;;;;;;5091805;28;20218;-77
2021/04/15 00:49:09;;;;;;;2.03;1.80;;;5.30;99.90;;;;;;5091477;28;20187;-77
2021/04/15 00:51:39;;;;;;;1.93;1.80;;;5.30;99.90;;;;;;5091659;28;20263;-77
2021/04/15 00:54:09;;;;;;;1.83;1.57;;;5.30;99.90;;;;;;5091742;28;20206;-77
2021/04/15 00:56:36;;;;;;;2.00;1.90;;;5.20;99.90;;;;;;5091030;28;20653;-75
2021/04/15 00:59:03;;;;;;;2.10;1.90;;;5.20;99.90;;;;;;5091064;28;20199;-74
2021/04/15 01:01:30;;;;;;;2.20;2.00;;;5.20;99.90;;;;;;5090939;28;20230;-74
2021/04/15 01:03:56;;;;;;;3.47;1.77;;;5.10;99.90;;;;;;5091091;28;20206;-74
2021/04/15 01:06:23;;;;;;;2.23;1.60;;;5.10;99.90;;;;;;5090796;28;20814;-74
2021/04/15 01:08:51;;;;;;;1.50;1.40;;;5.10;99.90;;;;;;5090866;28;20210;-74
2021/04/15 01:11:27;;;;;;;1.77;1.60;;;5.10;99.90;;;;;;5090681;28;20674;-75
2021/04/15 01:14:03;;;;;;;2.50;1.50;;;5.10;99.90;;;;;;5087110;28;20222;-75
2021/04/15 01:16:37;;;;;;;2.10;1.50;;;5.10;99.90;;;;;;5070173;28;20296;-75
2021/04/15 01:19:20;;;;;;;2.00;1.40;;;5.10;99.90;;;;;;5069871;28;20583;-75
2021/04/15 01:22:00;;;;;;;1.57;1.23;;;5.10;99.90;;;;;;5070210;28;20717;-75
2021/04/15 01:24:35;;;;;;;1.77;1.67;;;5.10;99.90;;;;;;5070401;28;20207;-75
2021/04/15 01:27:30;;;;;;;1.50;1.40;;;5.10;99.90;;;;;;5070518;28;20263;-75
2021/04/15 01:30:10;;;;;;;2.60;1.67;;;5.00;99.90;;;;;;5070388;28;20203;-75
2021/04/15 01:32:39;;;;;;;2.00;1.53;;;4.90;99.90;;;;;;5070060;28;20211;-73
2021/04/15 01:35:08;;;;;;;1.47;1.37;;;4.90;99.90;;;;;;5070500;28;20211;-76
2021/04/15 01:37:41;;;;;;;1.60;1.50;;;4.90;99.90;;;;;;5069867;28;20617;-75
2021/04/15 01:40:15;;;;;;;1.53;1.43;;;4.90;99.90;;;;;;5070613;28;20218;-75
2021/04/15 01:42:52;;;;;;;1.40;1.30;;;4.90;99.90;;;;;;5069693;28;20639;-74
2021/04/15 01:45:20;;;;;;;1.27;1.17;;;4.80;99.90;;;;;;5070433;28;20282;-75
2021/04/15 01:47:51;;;;;;;1.47;1.30;;;4.80;99.90;;;;;;5069784;28;20212;-75
2021/04/15 01:50:21;;;;;;;1.60;1.03;;;4.80;99.90;;;;;;5070106;28;20199;-75
2021/04/15 01:52:50;;;;;;;1.27;1.03;;;4.80;99.90;;;;;;5069802;28;20289;-75
2021/04/15 01:55:21;;;;;;;1.30;1.20;;;4.80;99.90;;;;;;5069993;28;20242;-75
2021/04/15 01:57:58;;;;;;;1.40;1.30;;;4.80;99.90;;;;;;5069423;28;20597;-75
2021/04/15 02:00:27;;;;;;;2.17;1.17;;;4.80;99.90;;;;;;5069869;28;20231;-74
2021/04/15 02:02:57;;;;;;;1.00;1.00;;;4.70;99.90;;;;;;5069597;28;20235;-75
2021/04/15 02:05:25;;;;;;;1.23;1.23;;;4.80;99.90;;;;;;5069701;28;20210;-75
2021/04/15 02:07:57;;;;;;;1.23;1.10;;;4.70;99.90;;;;;;5069614;28;20218;-76
2021/04/15 02:10:25;;;;;;;1.13;1.13;;;4.70;99.90;;;;;;5069548;28;20294;-75
2021/04/15 02:12:55;;;;;;;2.73;1.43;;;4.60;99.90;;;;;;5069534;28;20227;-75
2021/04/15 02:15:26;;;;;;;2.77;1.43;;;4.60;99.90;;;;;;5069460;28;20579;-75
2021/04/15 02:17:55;;;;;;;2.03;1.43;;;4.60;99.90;;;;;;5069383;28;20218;-75
2021/04/15 02:20:24;;;;;;;2.40;1.40;;;4.60;99.90;;;;;;5069286;28;20730;-75
2021/04/15 02:22:56;;;;;;;1.37;1.30;;;4.60;99.90;;;;;;5069424;28;20270;-74
2021/04/15 02:25:27;;;;;;;0.90;0.90;;;4.60;99.90;;;;;;5069491;28;20200;-74
2021/04/15 02:27:59;;;;;;;1.67;1.40;;;4.60;99.90;;;;;;5069101;28;20215;-74
2021/04/15 02:30:29;;;;;;;1.50;1.40;;;4.60;99.90;;;;;;5068995;28;20203;-75
2021/04/15 02:33:02;;;;;;;1.50;1.40;;;4.60;99.90;;;;;;5069111;28;20207;-74
2021/04/15 02:35:33;;;;;;;2.20;1.37;;;4.60;99.90;;;;;;5068905;28;20238;-73
2021/04/15 02:38:01;;;;;;;2.97;1.50;;;4.60;99.90;;;;;;5068825;28;20666;-73
2021/04/15 02:40:30;;;;;;;2.00;1.13;;;4.50;99.90;;;;;;5069159;28;20207;-73
2021/04/15 02:42:59;;;;;;;1.77;1.40;;;4.50;99.90;;;;;;5068685;28;20242;-74
2021/04/15 02:45:32;;;;;;;1.57;1.30;;;4.50;99.90;;;;;;5068910;28;20207;-74
2021/04/15 02:48:05;;;;;;;2.97;1.83;;;4.50;99.90;;;;;;5068812;28;20195;-74
2021/04/15 02:50:33;;;;;;;5.67;1.40;;;4.50;99.90;;;;;;5068773;28;20622;-74
2021/04/15 02:53:05;;;;;;;1.40;1.30;;;4.50;99.90;;;;;;5068657;28;20211;-73
2021/04/15 02:55:38;;;;;;;1.37;1.20;;;4.50;99.90;;;;;;5068856;28;20217;-73
2021/04/15 02:58:09;;;;;;;3.20;1.37;;;4.50;99.90;;;;;;5068685;28;20646;-73
2021/04/15 03:00:40;;;;;;;2.70;1.67;;;4.50;99.90;;;;;;5068883;28;20249;-75
2021/04/15 03:03:10;;;;;;;2.20;1.47;;;4.50;99.90;;;;;;5068955;28;20207;-73
2021/04/15 03:05:42;;;;;;;1.77;1.67;;;4.50;99.90;;;;;;5068285;28;20684;-75
2021/04/15 03:08:12;;;;;;;1.53;1.43;;;4.50;99.90;;;;;;5068779;28;20196;-71
2021/04/15 03:10:45;;;;;;;1.60;1.50;;;4.40;99.90;;;;;;5068619;28;20218;-75
2021/04/15 03:13:14;;;;;;;2.10;1.47;;;4.40;99.90;;;;;;5066808;28;20200;-75
2021/04/15 03:15:45;;;;;;;1.83;1.40;;;4.40;99.90;;;;;;5065817;28;20239;-74
2021/04/15 03:18:15;;;;;;;1.60;1.50;;;4.40;99.90;;;;;;5066011;28;21015;-75
2021/04/15 03:20:44;;;;;;;1.97;1.57;;;4.30;99.90;;;;;;5066003;28;20218;-74
2021/04/15 03:23:19;;;;;;;2.60;1.37;;;4.30;99.90;;;;;;5066278;28;20211;-75
2021/04/15 03:25:47;;;;;;;2.80;1.40;;;4.30;99.90;;;;;;5066179;28;20252;-74
2021/04/15 03:28:17;;;;;;;1.70;1.60;;;4.20;99.90;;;;;;5066553;28;20212;-78
2021/04/15 03:30:47;;;;;;;1.53;1.43;;;4.20;99.90;;;;;;5066169;28;20196;-78
2021/04/15 03:33:20;;;;;;;2.40;2.10;;;4.20;99.90;;;;;;5066581;28;20284;-74
2021/04/15 03:35:53;;;;;;;3.93;1.80;;;4.20;99.90;;;;;;5066354;28;20214;-74
2021/04/15 03:38:24;;;;;;;2.80;1.60;;;4.10;99.90;;;;;;5066343;28;20711;-74
2021/04/15 03:40:55;;;;;;;1.37;1.27;;;4.00;99.90;;;;;;5065514;28;20207;-75
2021/04/15 03:43:25;;;;;;;1.67;1.57;;;4.00;99.90;;;;;;5061485;28;20215;-74
2021/04/15 03:46:00;;;;;;;1.77;1.67;;;4.00;99.90;;;;;;5065299;28;20972;-74
2021/04/15 03:48:33;;;;;;;3.67;1.50;;;4.00;99.90;;;;;;5065793;28;20210;-74
2021/04/15 03:51:06;;;;;;;2.50;1.70;;;4.00;99.90;;;;;;5065285;28;20660;-74
2021/04/15 03:53:36;;;;;;;2.50;1.43;;;4.00;99.90;;;;;;5065378;28;20646;-74
2021/04/15 03:56:08;;;;;;;1.50;1.40;;;3.90;99.90;;;;;;5065526;28;20567;-74
2021/04/15 03:58:40;;;;;;;1.67;1.57;;;3.90;99.90;;;;;;5065444;28;20290;-74
2021/04/15 04:01:10;;;;;;;2.07;1.57;;;3.90;99.90;;;;;;5072864;28;20688;-74
2021/04/15 04:03:40;;;;;;;1.80;1.70;;;3.80;99.90;;;;;;5077567;28;20196;-74
2021/04/15 04:06:13;;;;;;;2.83;1.90;;;3.90;99.90;;;;;;5078344;28;20206;-74
2021/04/15 04:08:45;;;;;;;3.17;1.90;;;3.90;99.90;;;;;;5081839;28;20195;-75
2021/04/15 04:11:14;;;;;;;1.93;1.60;;;3.90;99.90;;;;;;5078384;28;20226;-75
2021/04/15 04:13:43;;;;;;;2.00;1.80;;;3.90;99.90;;;;;;5078730;28;20199;-75
2021/04/15 04:16:21;;;;;;;1.60;1.50;;;3.90;99.90;;;;;;5079319;28;20263;-75
2021/04/15 04:18:53;;;;;;;1.67;1.57;;;3.80;99.90;;;;;;5077782;28;20656;-75
2021/04/15 04:21:24;;;;;;;2.10;1.53;;;3.90;99.90;;;;;;5080585;28;20227;-75
2021/04/15 04:23:55;;;;;;;2.10;1.83;;;3.80;99.90;;;;;;5079615;28;20191;-75
2021/04/15 04:26:29;;;;;;;1.50;1.40;;;3.80;99.90;;;;;;5076314;28;20223;-75
2021/04/15 04:29:13;;;;;;;2.20;1.83;;;3.90;99.90;;;;;;5087656;28;20228;-75
2021/04/15 04:31:44;;;;;;;3.00;2.10;;;3.80;99.90;;;;;;5087764;28;20199;-75
2021/04/15 04:34:12;;;;;;;3.10;2.80;;;3.80;99.90;;;;;;5086621;28;20689;-75
2021/04/15 04:36:39;;;;;;;2.53;2.03;;;3.80;99.90;;;;;;5082664;28;20207;-75
2021/04/15 04:39:06;;;;;;;3.10;2.10;;;3.70;99.90;;;;;;5074901;28;20268;-75
2021/04/15 04:41:47;;;;;;;4.03;3.10;;;3.70;99.90;;;;;;5073427;28;20229;-75
2021/04/15 04:44:18;;;;;;;3.40;2.30;;;3.70;99.90;;;;;;5077495;28;20717;-75
2021/04/15 04:46:47;;;;;;;2.40;1.77;;;3.80;99.90;;;;;;5069460;28;20195;-75
2021/04/15 04:49:22;;;;;;;3.20;2.10;;;3.70;99.90;;;;;;5087488;28;20634;-75
2021/04/15 04:51:59;;;;;;;9.20;2.60;;;3.80;99.90;;;;;;5087403;28;20206;-75
2021/04/15 04:54:27;;;;;;;2.63;1.90;;;3.80;99.90;;;;;;5091188;28;20199;-75
2021/04/15 04:56:58;;;;;;;3.63;2.10;;;3.80;99.90;;;;;;5090907;28;20202;-74
2021/04/15 04:59:29;;;;;;;5.10;2.30;;;3.80;99.90;;;;;;5090826;28;20259;-75
2021/04/15 05:01:56;;;;;;;5.73;4.30;;;3.90;99.90;;;;;;5090286;28;20701;-75
2021/04/15 05:04:25;;;;;;;3.07;2.30;;;3.80;99.90;;;;;;5090409;28;20677;-74
2021/04/15 05:06:51;;;;;;;5.43;2.57;;;3.80;99.90;;;;;;5090626;28;20207;-75
2021/04/15 05:09:23;;;;;;;3.17;2.47;;;3.80;99.90;;;;;;5085078;28;20677;-74
2021/04/15 05:11:51;;;;;;;4.00;3.00;;;3.70;99.90;;;;;;5080111;28;20295;-75
2021/04/15 05:14:20;;;;;;;2.87;2.40;;;3.70;99.90;;;;;;5090510;28;20207;-74
2021/04/15 05:16:49;;;;;;;4.47;2.53;;;3.70;99.90;;;;;;5073886;28;20211;-75
2021/04/15 05:19:16;;;;;;;3.77;2.40;;;3.70;99.90;;;;;;5090272;28;20199;-74
2021/04/15 05:21:43;;;;;;;2.97;2.67;;;3.70;99.90;;;;;;5089870;28;20709;-74
2021/04/15 05:24:15;;;;;;;3.67;2.10;;;3.70;99.90;;;;;;5090148;28;20207;-75
2021/04/15 05:26:43;;;;;;;4.00;2.40;;;3.70;99.90;;;;;;5073536;28;20204;-75
2021/04/15 05:29:15;;;;;;;3.30;2.70;;;3.60;99.90;;;;;;5089970;28;20199;-74
2021/04/15 05:31:45;;;;;;;4.43;2.47;;;3.50;99.90;;;;;;5081612;28;20207;-74
2021/04/15 05:34:22;;;;;;;4.33;2.00;;;3.60;99.90;;;;;;5082574;28;20195;-74
2021/04/15 05:36:51;;;;;;;3.23;2.30;;;3.70;99.90;;;;;;5089246;28;20202;-75
2021/04/15 05:39:19;;;;;;;4.80;2.27;;;3.80;99.90;;;;;;5101010;28;20206;-76
2021/04/15 05:41:56;;;;;;;3.50;3.20;;;4.00;99.90;;;;;;5097902;28;20275;-75
2021/04/15 05:44:29;;;;;;;2.83;2.40;;;4.00;99.90;;;;;;5098354;28;20258;-74
2021/04/15 05:46:55;;;;;;;3.97;2.50;;;4.20;99.90;;;;;;5104058;28;20202;-74
2021/04/15 05:49:26;;;;;;;4.17;2.40;;;4.20;99.90;;;;;;5095283;27;20202;-74
2021/04/15 05:52:00;;;;;;;2.37;2.17;;;4.20;99.90;;;;;;5089641;28;20252;-75
2021/04/15 05:54:29;;;;;;;2.43;2.20;;;4.30;99.90;;;;;;5089986;28;20191;-75
2021/04/15 05:57:01;;;;;;;6.30;2.30;;;4.40;99.90;;;;;;5089560;28;20239;-75
2021/04/15 05:59:39;;;;;;;6.83;2.60;;;4.40;99.90;;;;;;5088498;28;20210;-75
2021/04/15 06:02:37;;;;;;;4.10;2.57;;;4.50;99.90;;;;;;5089004;28;20214;-74
2021/04/15 06:05:14;;;;;;;4.50;2.30;;;4.50;99.90;;;;;;5095361;28;20198;-74
2021/04/15 06:07:41;;;;;;;5.00;2.23;;;4.50;99.90;;;;;;5089698;28;20203;-74
2021/04/15 06:10:10;;;;;;;6.27;2.20;;;4.50;99.90;;;;;;5097273;28;20271;-75
2021/04/15 06:12:46;;;;;;;3.33;2.33;;;4.40;99.90;;;;;;5095210;28;20254;-74
2021/04/15 06:15:16;;;;;;;4.37;2.33;;;4.50;99.90;;;;;;5099755;28;20232;-75
2021/04/15 06:17:47;;;;;;;4.33;2.60;;;4.50;99.90;;;;;;5094409;28;20200;-75
2021/04/15 06:20:21;;;;;;;2.27;1.80;;;4.60;99.90;;;;;;5096783;28;20241;-75
2021/04/15 06:22:50;;;;;;;3.97;2.20;;;4.60;99.90;;;;;;5077671;28;20692;-74
2021/04/15 06:25:19;;;;;;;3.63;2.20;;;4.60;99.90;;;;;;5081146;28;20207;-75
2021/04/15 06:27:48;;;;;;;5.43;2.50;;;4.70;99.90;;;;;;5075849;28;20665;-74
2021/04/15 06:30:20;;;;;;;2.33;1.97;;;4.70;99.90;;;;;;5077721;28;20909;-75
2021/04/15 06:32:51;;;;;;;3.37;2.00;;;4.80;99.90;;;;;;5086452;28;20199;-74
2021/04/15 06:35:21;;;;;;;2.57;2.10;;;4.80;99.90;;;;;;5088556;28;21094;-74
2021/04/15 06:37:51;;;;;;;3.20;1.93;;;4.90;99.90;;;;;;5088269;28;20550;-74
2021/04/15 06:41:09;;;;;;;2.97;1.83;;;4.90;99.90;;;;;;5088708;28;20211;-74
2021/04/15 06:43:58;;;;;;;5.33;1.90;;;5.00;99.90;;;;;;5079654;28;20195;-74
2021/04/15 06:46:38;;;;;;;2.70;2.37;;;5.10;99.90;;;;;;5082780;28;20199;-74
2021/04/15 06:49:27;;;;;;;2.13;1.93;;;5.10;99.90;;;;;;5068792;28;20200;-74
2021/04/15 06:52:01;;;;;;;2.70;2.30;;;5.20;99.90;;;;;;5073488;28;20210;-74
2021/04/15 06:54:37;;;;;;;3.00;2.53;;;5.30;99.90;;;;;;5074424;28;20605;-74
2021/04/15 06:57:27;;;;;;;4.63;2.30;;;5.30;99.90;;;;;;5081426;28;20206;-74
2021/04/15 07:00:12;;;;;;;2.50;1.67;;;5.40;99.90;;;;;;5076938;28;20230;-75
2021/04/15 07:02:52;;;;;;;2.73;1.93;;;5.40;99.90;;;;;;5070185;28;20221;-75
2021/04/15 07:05:21;;;;;;;2.83;1.90;;;5.40;99.90;;;;;;5078248;28;20685;-74
2021/04/15 07:07:55;;;;;;;3.97;1.80;;;5.50;99.90;;;;;;5087833;28;20578;-75
2021/04/15 07:10:41;;;;;;;3.53;1.73;;;5.50;99.90;;;;;;5088427;28;20680;-74
2021/04/15 07:13:44;;;;;;;2.40;1.80;;;5.60;99.90;;;;;;5088884;28;20309;-75
2021/04/15 07:17:02;;;;;;;7.67;2.20;;;5.70;99.90;;;;;;5086866;28;20238;-74
2021/04/15 07:20:27;;;;;;;35.90;3.73;;;5.80;99.90;;;;;;5088392;28;20290;-74
2021/04/15 07:23:24;;;;;;;2.57;2.00;;;5.90;99.90;;;;;;5088297;28;20248;-74
2021/04/15 07:26:09;;;;;;;2.47;1.80;;;5.90;99.90;;;;;;5088054;28;20203;-75
2021/04/15 07:29:15;;;;;;;1.77;1.43;;;6.00;99.90;;;;;;5088555;28;20191;-73
2021/04/15 07:32:04;;;;;;;2.17;1.70;;;6.20;99.90;;;;;;5077426;28;20259;-73
2021/04/15 07:34:45;;;;;;;2.17;1.57;;;6.20;99.90;;;;;;5088292;28;20191;-74
2021/04/15 07:37:42;;;;;;;3.27;1.40;;;6.30;99.90;;;;;;5088163;28;20402;-74
2021/04/15 07:40:43;;;;;;;2.93;1.50;;;6.30;99.90;;;;;;5084603;28;20635;-74
2021/04/15 07:43:28;;;;;;;2.03;1.43;;;6.40;99.90;;;;;;5088151;28;20222;-74
2021/04/15 07:46:08;;;;;;;2.83;1.50;;;6.50;99.90;;;;;;5087735;28;20216;-74
2021/04/15 07:48:58;;;;;;;2.20;1.63;;;6.50;99.90;;;;;;5088083;28;20206;-73
2021/04/15 07:51:56;;;;;;;2.17;1.40;;;6.60;99.90;;;;;;5087785;28;20202;-74
2021/04/15 07:54:44;;;;;;;1.53;1.43;;;6.70;99.90;;;;;;5082199;28;20218;-75
2021/04/15 07:57:38;;;;;;;2.10;1.53;;;6.70;99.90;;;;;;5087520;28;20191;-75
2021/04/15 08:00:28;;;;;;;2.20;1.50;;;6.80;99.90;;;;;;5085736;28;20199;-75
2021/04/15 08:03:38;;;;;;;3.43;1.47;;;6.90;99.90;;;;;;5086960;28;20237;-73
2021/04/15 08:06:26;;;;;;;3.37;1.50;;;7.00;99.90;;;;;;5024635;28;20212;-73
2021/04/15 08:09:20;;;;;;;1.53;1.20;;;7.10;99.90;;;;;;5081721;28;20207;-74
2021/04/15 08:11:53;;;;;;;1.50;1.40;;;7.10;99.90;;;;;;5087583;28;20234;-73
2021/04/15 08:14:56;;;;;;;1.40;1.27;;;7.10;99.90;;;;;;5087599;28;20188;-73
2021/04/15 08:17:36;;;;;;;2.20;1.17;;;7.20;99.90;;;;;;5087553;28;20206;-73
2021/04/15 08:20:23;;;;;;;2.70;1.50;;;7.30;99.90;;;;;;5087407;28;20621;-73
2021/04/15 08:23:14;;;;;;;3.27;1.10;;;7.30;99.90;;;;;;5087079;28;20521;-73
2021/04/15 08:25:56;;;;;;;1.07;1.07;;;7.40;99.90;;;;;;5087739;28;20198;-73
2021/04/15 08:28:46;;;;;;;2.80;1.43;;;7.50;99.90;;;;;;5091729;28;20276;-73
2021/04/15 08:31:23;;;;;;;0.93;0.90;;;7.60;99.90;;;;;;5091788;28;20190;-73
2021/04/15 08:34:07;;;;;;;3.43;1.10;;;7.60;99.90;;;;;;5091910;28;20210;-73
2021/04/15 08:36:46;;;;;;;1.67;0.60;;;7.70;99.90;;;;;;5091714;28;20210;-73
2021/04/15 08:39:25;;;;;;;16.83;1.97;;;7.80;99.90;;;;;;5091008;28;20194;-73
2021/04/15 08:42:00;;;;;;;2.57;0.90;;;7.90;99.70;;;;;;5090968;28;20233;-72
2021/04/15 08:45:08;;;;;;;0.93;0.70;;;8.00;98.60;;;;;;5091082;28;20197;-72
2021/04/15 08:47:49;;;;;;;0.70;0.70;;;8.00;97.60;;;;;;5047807;28;20200;-73
2021/04/15 08:50:21;;;;;;;8.73;1.00;;;8.00;97.40;;;;;;5084454;28;20298;-73
2021/04/15 08:52:55;;;;;;;0.93;0.67;;;8.00;96.70;;;;;;5090661;28;20227;-73
2021/04/15 08:55:29;;;;;;;0.70;0.70;;;8.10;97.10;;;;;;5091103;28;20198;-73
2021/04/15 08:58:41;;;;;;;0.93;0.70;;;8.20;97.60;;;;;;5090583;28;20191;-73
2021/04/15 09:01:15;;;;;;;1.07;0.60;;;8.20;96.80;;;;;;5090620;28;20286;-73
2021/04/15 09:03:55;;;;;;;0.83;0.70;;;8.20;96.60;;;;;;5090694;28;20201;-73
2021/04/15 09:06:25;;;;;;;1.53;0.57;;;8.20;96.60;;;;;;5090386;28;20199;-74
2021/04/15 09:09:06;;;;;;;10.00;1.30;;;8.30;96.90;;;;;;5090309;28;20599;-71
2021/04/15 09:11:39;;;;;;;2.70;0.83;;;8.30;97.10;;;;;;5090753;28;20226;-74
2021/04/15 09:14:17;;;;;;;0.70;0.70;;;8.50;97.80;;;;;;5099201;28;20268;-74
2021/04/15 09:16:48;;;;;;;3.20;1.00;;;8.50;96.50;;;;;;5100892;28;20226;-74
2021/04/15 09:19:32;;;;;;;17.77;2.90;;;8.60;96.20;;;;;;5096669;28;20190;-73
2021/04/15 09:22:14;;;;;;;2.97;0.83;;;8.70;96.90;;;;;;5096086;28;20210;-73
2021/04/15 09:24:45;;;;;;;0.63;0.63;;;8.80;96.30;;;;;;5097875;28;20183;-73
2021/04/15 09:27:29;;;;;;;1.07;0.70;;;8.90;94.80;;;;;;5100070;28;20215;-74
2021/04/15 09:30:13;;;;;;;1.03;0.50;;;8.90;94.60;;;;;;5097506;28;20664;-74
2021/04/15 09:32:48;;;;;;;0.70;0.70;;;9.10;94.60;;;;;;5098214;28;20190;-74
2021/04/15 09:35:34;;;;;;;0.57;0.50;;;9.10;93.60;;;;;;5097770;28;20186;-74
2021/04/15 09:38:27;;;;;;;0.70;0.70;;;9.20;93.20;;;;;;5096987;28;20248;-74
2021/04/15 09:41:08;;;;;;;1.33;0.30;;;9.20;92.80;;;;;;5095778;28;20328;-74
2021/04/15 09:44:00;;;;;;;0.67;0.50;;;9.30;93.20;;;;;;5089585;28;20230;-74
2021/04/15 09:46:32;;;;;;;0.73;0.50;;;9.40;93.50;;;;;;5100980;28;20199;-74
2021/04/15 09:49:16;;;;;;;0.97;0.57;;;9.50;93.00;;;;;;5097216;28;20190;-74
2021/04/15 09:52:10;;;;;;;0.63;0.63;;;9.60;92.20;;;;;;5094878;28;20198;-73
2021/04/15 09:54:49;;;;;;;1.80;0.63;;;9.60;92.20;;;;;;5092775;28;20680;-75
2021/04/15 09:57:28;;;;;;;3.13;0.50;;;9.60;92.30;;;;;;5098922;28;20191;-75
2021/04/15 10:00:16;;;;;;;0.50;0.40;;;9.70;92.10;;;;;;5095304;28;20198;-75
2021/04/15 10:03:06;;;;;;;0.37;0.37;;;9.70;92.00;;;;;;5094956;28;20218;-74
2021/04/15 10:05:44;;;;;;;1.80;0.63;;;9.70;91.90;;;;;;5097823;28;20225;-75
2021/04/15 10:08:19;;;;;;;0.93;0.60;;;9.70;91.60;;;;;;5091915;28;20195;-74
2021/04/15 10:10:57;;;;;;;0.40;0.30;;;9.70;90.80;;;;;;5097676;28;20218;-75
2021/04/15 10:13:34;;;;;;;6.73;0.70;;;9.70;88.00;;;;;;5088972;28;20664;-78
2021/04/15 10:16:07;;;;;;;0.70;0.40;;;9.70;89.90;;;;;;5096679;28;20257;-76
2021/04/15 10:19:03;;;;;;;0.67;0.37;;;9.80;91.00;;;;;;5091800;28;20191;-74
2021/04/15 10:21:41;;;;;;;0.60;0.43;;;9.90;90.00;;;;;;5101992;28;20194;-75
2021/04/15 10:24:17;;;;;;;0.43;0.40;;;10.00;89.50;;;;;;5100087;28;20186;-75
2021/04/15 10:27:16;;;;;;;2.43;0.50;;;10.00;88.90;;;;;;5097568;28;20247;-75
2021/04/15 10:30:16;;;;;;;2.13;0.60;;;10.00;87.90;;;;;;5098476;28;20263;-75
2021/04/15 10:33:07;;;;;;;1.17;0.20;;;9.90;88.60;;;;;;5095332;28;20198;-75
2021/04/15 10:36:06;;;;;;;0.70;0.60;;;9.90;88.40;;;;;;5094296;28;20207;-75
2021/04/15 10:39:00;;;;;;;2.73;0.70;;;9.80;88.00;;;;;;5099874;28;20198;-75
2021/04/15 10:41:59;;;;;;;1.17;0.30;;;9.70;87.70;;;;;;5099145;28;20198;-74
2021/04/15 10:44:49;;;;;;;0.60;0.50;;;9.50;88.50;;;;;;5092344;28;20746;-75
2021/04/15 10:47:27;;;;;;;0.80;0.30;;;9.50;88.30;;;;;;5073194;28;20199;-75
2021/04/15 10:50:02;;;;;;;4.83;0.73;;;9.50;89.00;;;;;;5099047;28;20268;-75
2021/04/15 10:52:50;;;;;;;1.43;0.50;;;9.50;89.40;;;;;;5096603;28;20197;-75
2021/04/15 10:55:19;;;;;;;0.53;0.50;;;9.50;89.90;;;;;;5094964;28;20288;-75
2021/04/15 10:57:47;;;;;;;0.80;0.80;;;9.50;90.00;;;;;;5096661;28;20203;-75
2021/04/15 11:00:26;;;;;;;4.40;0.67;;;9.40;90.20;;;;;;5096421;28;20194;-75
2021/04/15 11:02:55;;;;;;;2.53;0.40;;;9.40;90.20;;;;;;5098453;28;20220;-75
2021/04/15 11:05:25;;;;;;;0.60;0.60;;;9.40;90.40;;;;;;5095805;28;20206;-75
2021/04/15 11:07:54;;;;;;;0.47;0.47;;;9.40;90.60;;;;;;5095870;28;20196;-75
2021/04/15 11:10:28;;;;;;;1.57;0.57;;;9.40;90.60;;;;;;5090660;28;20259;-75
2021/04/15 11:13:11;;;;;;;2.20;0.70;;;9.40;90.30;;;;;;5094272;28;20270;-75
2021/04/15 11:15:47;;;;;;;3.60;0.77;;;9.50;90.00;;;;;;5092551;28;20230;-75
2021/04/15 11:18:17;;;;;;;0.70;0.47;;;9.60;90.40;;;;;;5101930;28;20198;-75
2021/04/15 11:20:44;;;;;;;0.40;0.40;;;9.60;90.00;;;;;;5087117;28;20221;-75
2021/04/15 11:23:32;;;;;;;2.43;0.70;;;9.60;90.20;;;;;;5086686;28;20300;-75
2021/04/15 11:26:22;;;;;;;3.50;0.60;;;9.60;90.50;;;;;;5087483;28;20199;-74
2021/04/15 11:28:51;;;;;;;4.37;0.73;;;9.70;90.40;;;;;;5087756;28;20197;-75
2021/04/15 11:31:31;;;;;;;4.77;0.70;;;9.70;90.70;;;;;;5087963;28;20207;-75
2021/04/15 11:34:13;;;;;;;3.90;0.90;;;9.80;90.70;;;;;;5088106;28;20191;-75
2021/04/15 11:37:02;;;;;;;2.90;0.63;;;9.60;90.50;;;;;;5088174;28;20191;-75
2021/04/15 11:39:31;;;;;;;1.13;0.57;;;9.60;91.20;;;;;;5087856;28;20195;-75
2021/04/15 11:42:02;;;;;;;1.43;0.90;;;9.60;91.30;;;;;;5087582;28;20271;-72
2021/04/15 11:44:36;;;;;;;1.13;0.53;;;9.60;91.50;;;;;;5087808;28;20194;-73
2021/04/15 11:47:06;;;;;;;1.10;0.40;;;9.60;91.70;;;;;;5087266;28;20601;-73
2021/04/15 11:49:35;;;;;;;1.50;0.40;;;9.60;91.70;;;;;;5087507;28;20244;-73
2021/04/15 11:52:20;;;;;;;1.13;0.70;;;9.70;92.10;;;;;;5087532;28;20693;-73
2021/04/15 11:55:03;;;;;;;5.47;1.10;;;9.70;92.20;;;;;;5088105;28;20190;-73
2021/04/15 11:57:32;;;;;;;2.00;0.70;;;9.70;92.30;;;;;;5088017;28;20190;-73
2021/04/15 12:00:07;;;;;;;6.07;0.90;;;9.70;92.40;;;;;;5088297;28;20211;-74
2021/04/15 12:02:37;;;;;;;16.77;1.93;;;9.70;92.70;;;;;;5090833;28;20218;-74
2021/04/15 12:05:22;;;;;;;0.67;0.30;;;9.60;93.00;;;;;;5092085;28;20202;-74
2021/04/15 12:07:53;;;;;;;0.60;0.60;;;9.40;93.00;;;;;;5092113;28;20186;-73
2021/04/15 12:10:23;;;;;;;2.10;0.87;;;9.40;93.50;;;;;;5092372;28;20296;-73
2021/04/15 12:12:53;;;;;;;0.57;0.40;;;9.40;94.00;;;;;;5092356;28;21151;-73
2021/04/15 12:15:25;;;;;;;2.17;0.70;;;9.40;94.10;;;;;;5091620;28;20243;-73
2021/04/15 12:17:59;;;;;;;0.70;0.70;;;9.40;94.10;;;;;;5091804;28;20248;-81
2021/04/15 12:20:32;;;;;;;1.47;0.77;;;9.40;94.00;;;;;;5092143;28;20668;-80
2021/04/15 12:23:06;;;;;;;1.97;0.90;;;9.50;94.80;;;;;;5091832;28;20231;-75
2021/04/15 12:25:38;;;;;;;0.93;0.63;;;9.60;94.50;;;;;;5089927;28;20207;-77
2021/04/15 12:28:25;;;;;;;0.60;0.60;;;9.60;93.80;;;;;;5089995;28;20203;-74
2021/04/15 12:31:00;;;;;;;2.43;0.70;;;9.60;93.70;;;;;;5091282;28;20209;-74
2021/04/15 12:33:35;;;;;;;1.33;0.60;;;9.60;93.20;;;;;;5091318;28;20203;-74
2021/04/15 12:36:08;;;;;;;0.77;0.60;;;9.70;93.70;;;;;;5074534;28;20207;-74
2021/04/15 12:38:40;;;;;;;1.07;0.70;;;9.70;93.70;;;;;;5085937;28;20234;-74
2021/04/15 12:41:09;;;;;;;1.80;0.40;;;9.60;93.40;;;;;;5080989;28;20206;-74
2021/04/15 12:43:38;;;;;;;1.73;0.80;;;9.50;92.80;;;;;;5090817;28;20231;-74
2021/04/15 12:46:09;;;;;;;0.70;0.70;;;9.50;93.20;;;;;;5090802;28;20586;-73
2021/04/15 12:48:40;;;;;;;2.70;0.53;;;9.40;92.30;;;;;;5091115;28;20225;-74
2021/04/15 12:51:08;;;;;;;1.80;0.90;;;9.30;92.20;;;;;;5090904;28;20661;-74
2021/04/15 12:53:38;;;;;;;0.70;0.57;;;9.30;92.70;;;;;;5088979;28;20241;-74
2021/04/15 12:56:06;;;;;;;3.50;0.70;;;9.30;93.10;;;;;;5087692;28;20635;-74
2021/04/15 12:58:32;;;;;;;0.70;0.70;;;9.40;93.20;;;;;;5100971;27;20206;-74
2021/04/15 13:01:01;;;;;;;1.57;0.60;;;9.40;92.90;;;;;;5100263;28;20198;-74
2021/04/15 13:03:31;;;;;;;0.70;0.63;;;9.40;92.70;;;;;;5101531;28;20230;-74
2021/04/15 13:06:05;;;;;;;1.10;1.10;;;9.40;92.50;;;;;;5094258;28;20634;-73
2021/04/15 13:08:40;;;;;;;2.40;1.10;;;9.50;94.30;;;;;;5088826;28;20646;-75
2021/04/15 13:11:29;;;;;;;2.13;0.60;;;9.60;94.40;;;;;;5093899;28;20213;-74
2021/04/15 13:13:56;;;;;;;2.30;0.67;;;9.50;92.10;;;;;;5087256;28;20206;-73
2021/04/15 13:16:42;;;;;;;0.97;0.93;;;9.50;92.00;;;;;;5088483;28;20238;-73
2021/04/15 13:20:00;;;;;;;3.47;0.70;;;9.50;91.80;;;;;;5088455;28;20194;-73
2021/04/15 13:22:32;;;;;;;4.10;1.00;;;9.50;91.70;;;;;;5088625;28;20234;-73
2021/04/15 13:25:17;;;;;;;0.33;0.30;;;9.40;91.70;;;;;;5088493;28;20198;-73
2021/04/15 13:28:09;;;;;;;1.80;0.70;;;9.50;91.80;;;;;;5088406;28;20198;-74
2021/04/15 13:30:56;;;;;;;1.77;0.53;;;9.50;91.70;;;;;;5088170;28;20231;-74
2021/04/15 13:33:43;;;;;;;0.50;0.50;;;9.50;91.10;;;;;;5087964;28;20658;-74
2021/04/15 13:36:23;;;;;;;1.13;0.40;;;9.50;91.40;;;;;;5087838;28;20209;-74
2021/04/15 13:39:27;;;;;;;4.23;0.50;;;9.50;91.40;;;;;;5088376;28;20205;-74
2021/04/15 13:42:04;;;;;;;0.40;0.40;;;9.50;91.10;;;;;;5088270;28;20194;-74
2021/04/15 13:44:58;;;;;;;0.57;0.57;;;9.50;89.80;;;;;;5090504;28;20225;-74
2021/04/15 13:47:54;;;;;;;0.67;0.60;;;9.40;90.00;;;;;;5074191;28;20719;-74